Time;durP1;ratioP1;P1;durP2;ratioP2;P2;SDS_P1;SDS_P2;PMS_P1;PMS_P2;Temp;Humidity;BMP_temperature;BMP_pressure;BME280_temperature;BME280_humidity;BME280_pressure;Samples;Min_cycle;Max_cycle;Signal;HPM_P1;HPM_P2
2020/12/06 00:02:54;;;;;;;21.25;15.77;;;;;;;1.29;100.00;99353.25;10431907;28;20504;-71
2020/12/06 00:07:55;;;;;;;19.98;15.32;;;;;;;1.33;100.00;99354.03;10426362;28;20128;-71
2020/12/06 00:12:56;;;;;;;19.13;15.55;;;;;;;1.30;100.00;99339.41;10429522;28;20055;-71
2020/12/06 00:17:58;;;;;;;32.15;24.60;;;;;;;1.38;100.00;99323.63;10434808;28;20037;-71
2020/12/06 00:23:00;;;;;;;40.08;31.45;;;;;;;1.19;100.00;99325.00;10454594;28;20052;-71
2020/12/06 00:28:01;;;;;;;25.10;19.25;;;;;;;1.01;100.00;99321.16;10451855;28;20044;-71
2020/12/06 00:33:02;;;;;;;19.17;15.13;;;;;;;0.87;100.00;99298.19;10458055;28;20041;-71
2020/12/06 00:38:04;;;;;;;20.38;16.20;;;;;;;1.00;100.00;99309.09;10432901;28;20049;-71
2020/12/06 00:43:05;;;;;;;19.88;16.25;;;;;;;0.99;100.00;99304.81;10432491;28;20500;-71
2020/12/06 00:48:06;;;;;;;20.27;15.77;;;;;;;0.99;100.00;99310.00;10436996;28;20540;-71
2020/12/06 00:53:07;;;;;;;20.17;16.10;;;;;;;1.06;100.00;99309.78;10464393;28;20026;-71
2020/12/06 00:58:08;;;;;;;21.25;15.82;;;;;;;0.97;100.00;99317.81;10440773;28;20057;-71
2020/12/06 01:03:10;;;;;;;19.25;14.90;;;;;;;0.95;100.00;99308.34;10458953;28;20037;-71
2020/12/06 01:08:11;;;;;;;20.58;17.33;;;;;;;1.02;100.00;99325.44;10456478;28;20041;-71
2020/12/06 01:13:12;;;;;;;20.10;15.80;;;;;;;0.90;100.00;99311.09;10458467;28;20044;-71
2020/12/06 01:18:13;;;;;;;20.63;16.08;;;;;;;0.96;100.00;99318.69;10458373;28;20049;-71
2020/12/06 01:23:14;;;;;;;20.92;16.52;;;;;;;0.95;100.00;99329.09;10479478;28;20514;-71
2020/12/06 01:28:15;;;;;;;20.98;15.30;;;;;;;0.93;100.00;99329.13;10458045;28;20404;-71
2020/12/06 01:33:16;;;;;;;23.45;16.52;;;;;;;0.93;100.00;99312.72;10466639;28;20049;-71
2020/12/06 01:38:18;;;;;;;21.58;16.55;;;;;;;0.80;100.00;99296.66;10457214;28;20045;-71
2020/12/06 01:43:19;;;;;;;21.02;15.98;;;;;;;0.71;100.00;99323.66;10455400;28;20041;-71
2020/12/06 01:48:20;;;;;;;20.85;16.90;;;;;;;0.68;100.00;99320.28;10422752;28;20045;-71
2020/12/06 01:53:21;;;;;;;19.92;15.35;;;;;;;0.63;100.00;99329.91;10439402;28;20450;-71
2020/12/06 01:58:25;;;;;;;22.48;17.58;;;;;;;0.80;100.00;99339.88;10454190;28;20056;-72
2020/12/06 02:03:27;;;;;;;20.20;16.30;;;;;;;0.75;100.00;99366.72;10455847;28;20508;-71
2020/12/06 02:08:28;;;;;;;19.60;14.63;;;;;;;0.63;100.00;99353.25;10435503;28;20099;-71
2020/12/06 02:13:29;;;;;;;20.20;15.80;;;;;;;0.68;100.00;99357.41;10455314;28;20049;-71
2020/12/06 02:18:30;;;;;;;18.27;14.93;;;;;;;0.71;100.00;99364.28;10460076;28;20047;-72
2020/12/06 02:23:32;;;;;;;17.40;13.95;;;;;;;0.75;100.00;99337.41;10442778;28;20045;-71
2020/12/06 02:28:33;;;;;;;18.25;14.18;;;;;;;0.70;100.00;99327.13;10405479;28;20042;-71
2020/12/06 02:33:34;;;;;;;20.00;15.40;;;;;;;0.79;100.00;99325.19;10458380;28;20049;-71
2020/12/06 02:38:35;;;;;;;25.88;15.80;;;;;;;0.83;100.00;99311.28;10415455;28;20108;-71
2020/12/06 02:43:36;;;;;;;20.60;15.85;;;;;;;0.83;100.00;99308.69;10429705;28;20045;-71
2020/12/06 02:48:37;;;;;;;17.92;14.40;;;;;;;0.68;100.00;99315.09;10441993;28;20043;-71
2020/12/06 02:53:38;;;;;;;18.58;14.82;;;;;;;0.55;100.00;99329.25;10415028;28;20045;-71
2020/12/06 02:58:39;;;;;;;18.33;14.15;;;;;;;0.54;100.00;99324.94;10470639;28;20053;-71
2020/12/06 03:03:41;;;;;;;18.67;14.93;;;;;;;0.47;100.00;99334.63;10473117;28;20048;-72
2020/12/06 03:08:42;;;;;;;19.50;14.77;;;;;;;0.57;100.00;99343.03;10454810;28;20049;-71
2020/12/06 03:13:43;;;;;;;16.13;14.20;;;;;;;0.70;100.00;99363.41;10431345;28;20048;-71
2020/12/06 03:18:45;;;;;;;20.05;14.35;;;;;;;0.67;100.00;99347.09;10437103;28;20037;-71
2020/12/06 03:23:47;;;;;;;20.20;15.73;;;;;;;0.60;100.00;99348.97;10455391;28;20045;-71
2020/12/06 03:28:48;;;;;;;20.33;15.32;;;;;;;0.48;100.00;99356.19;10454049;28;20052;-71
2020/12/06 03:33:49;;;;;;;17.95;14.15;;;;;;;0.34;100.00;99348.72;10484506;28;20037;-71
2020/12/06 03:38:50;;;;;;;17.65;13.57;;;;;;;0.40;100.00;99345.16;10432206;28;20045;-71
2020/12/06 03:43:51;;;;;;;22.17;17.42;;;;;;;0.50;100.00;99351.84;10454397;28;20408;-71
2020/12/06 03:48:52;;;;;;;19.75;15.32;;;;;;;0.44;100.00;99339.88;10454177;28;20045;-71
2020/12/06 03:53:53;;;;;;;24.40;16.05;;;;;;;0.58;100.00;99355.09;10436289;28;20400;-71
2020/12/06 03:58:54;;;;;;;21.48;16.58;;;;;;;0.78;100.00;99347.66;10453369;28;20056;-71
2020/12/06 04:03:55;;;;;;;21.17;16.92;;;;;;;0.71;100.00;99334.03;10460065;28;20033;-71
2020/12/06 04:08:57;;;;;;;20.25;15.07;;;;;;;0.78;100.00;99339.91;10443886;28;20053;-71
2020/12/06 04:13:58;;;;;;;16.75;13.38;;;;;;;0.76;100.00;99333.88;10440459;28;20056;-71
2020/12/06 04:18:59;;;;;;;18.70;14.77;;;;;;;0.81;100.00;99310.47;10459840;28;20041;-71
2020/12/06 04:24:00;;;;;;;18.45;13.98;;;;;;;0.95;100.00;99313.53;10447794;28;20046;-71
2020/12/06 04:29:01;;;;;;;19.33;14.57;;;;;;;0.92;100.00;99311.88;10445473;28;20045;-71
2020/12/06 04:34:02;;;;;;;20.13;14.25;;;;;;;0.96;100.00;99329.06;10454364;28;20053;-71
2020/12/06 04:39:03;;;;;;;18.73;14.35;;;;;;;0.90;100.00;99323.19;10416619;28;20056;-71
2020/12/06 04:44:05;;;;;;;21.30;16.80;;;;;;;0.69;100.00;99320.25;10420646;28;20045;-71
2020/12/06 04:49:06;;;;;;;22.20;17.08;;;;;;;0.70;100.00;99324.53;10418649;28;20042;-71
2020/12/06 04:54:08;;;;;;;19.73;14.32;;;;;;;0.81;100.00;99341.56;10418354;28;20049;-71
2020/12/06 04:59:12;;;;;;;18.20;14.88;;;;;;;0.88;100.00;99318.03;10433416;28;20059;-71
2020/12/06 05:04:14;;;;;;;22.63;17.13;;;;;;;0.80;100.00;99300.97;10440917;28;20045;-71
2020/12/06 05:09:16;;;;;;;20.55;15.93;;;;;;;0.92;100.00;99318.81;10441085;28;20049;-71
2020/12/06 05:14:17;;;;;;;20.23;15.50;;;;;;;0.81;100.00;99308.72;10446287;28;20052;-71
2020/12/06 05:19:18;;;;;;;18.70;14.52;;;;;;;0.84;100.00;99306.03;10442529;28;20045;-71
2020/12/06 05:24:20;;;;;;;22.60;16.80;;;;;;;0.90;100.00;99320.59;10483038;28;20052;-72
2020/12/06 05:29:21;;;;;;;18.73;15.38;;;;;;;0.85;100.00;99328.47;10453755;28;20040;-72
2020/12/06 05:34:22;;;;;;;20.65;14.30;;;;;;;0.79;100.00;99304.47;10435052;28;20052;-71
2020/12/06 05:39:23;;;;;;;20.40;15.10;;;;;;;0.96;100.00;99307.47;10439999;28;20059;-71
2020/12/06 05:44:24;;;;;;;20.63;15.90;;;;;;;1.07;100.00;99314.09;10456701;28;20053;-71
2020/12/06 05:49:25;;;;;;;19.52;14.30;;;;;;;1.12;100.00;99306.16;10457285;28;20373;-71
2020/12/06 05:54:27;;;;;;;19.60;15.43;;;;;;;1.08;100.00;99315.78;10483232;28;20051;-71
2020/12/06 05:59:33;;;;;;;16.65;13.23;;;;;;;1.13;100.00;99333.81;10447287;28;20076;-71
2020/12/06 06:04:39;;;;;;;18.02;13.70;;;;;;;1.18;100.00;99337.13;10457424;28;20045;-71
2020/12/06 06:09:42;;;;;;;18.55;14.50;;;;;;;1.24;100.00;99333.53;10453553;28;20495;-71
2020/12/06 06:14:43;;;;;;;19.77;15.60;;;;;;;1.32;100.00;99340.22;10456917;28;20501;-71
2020/12/06 06:19:46;;;;;;;17.70;14.52;;;;;;;1.18;100.00;99320.72;10455372;28;20033;-71
2020/12/06 06:24:48;;;;;;;20.10;14.75;;;;;;;1.29;100.00;99334.25;10451852;28;20071;-71
2020/12/06 06:29:50;;;;;;;17.27;13.90;;;;;;;1.36;100.00;99321.06;10434789;28;20477;-71
2020/12/06 06:34:51;;;;;;;19.23;15.98;;;;;;;1.40;100.00;99320.09;10494421;28;20048;-71
2020/12/06 06:39:58;;;;;;;17.17;13.73;;;;;;;1.44;100.00;99313.91;10436756;28;20049;-71
2020/12/06 06:45:12;;;;;;;17.95;14.85;;;;;;;1.19;100.00;99294.72;10416720;28;20099;-71
2020/12/06 06:50:15;;;;;;;17.45;14.38;;;;;;;1.04;100.00;99296.00;10396811;28;20048;-71
2020/12/06 06:55:16;;;;;;;18.05;14.38;;;;;;;1.19;100.00;99286.09;10440635;28;20041;-71
2020/12/06 07:00:17;;;;;;;18.00;14.68;;;;;;;1.24;100.00;99276.47;10460990;28;20068;-71
2020/12/06 07:05:18;;;;;;;19.95;16.45;;;;;;;1.50;100.00;99302.53;10436855;28;20041;-71
2020/12/06 07:10:21;;;;;;;17.10;12.57;;;;;;;1.49;100.00;99306.03;10455224;28;20044;-71
2020/12/06 07:15:24;;;;;;;19.80;14.10;;;;;;;1.42;100.00;99304.50;10454292;28;20047;-71
2020/12/06 07:20:27;;;;;;;17.17;13.52;;;;;;;1.27;100.00;99269.44;10455166;28;20394;-71
2020/12/06 07:25:29;;;;;;;18.95;13.57;;;;;;;1.69;100.00;99280.31;10438353;28;20369;-71
2020/12/06 07:30:31;;;;;;;32.65;22.00;;;;;;;1.96;100.00;99265.66;10417056;28;20404;-71
2020/12/06 07:35:32;;;;;;;26.10;18.48;;;;;;;1.94;100.00;99280.44;10414580;28;20053;-71
2020/12/06 07:40:33;;;;;;;29.38;20.67;;;;;;;1.79;100.00;99280.91;10421930;28;20049;-71
2020/12/06 07:45:34;;;;;;;16.70;14.13;;;;;;;1.67;100.00;99287.31;10421050;28;20520;-71
2020/12/06 07:50:44;;;;;;;21.45;16.23;;;;;;;1.78;100.00;99306.00;10446427;28;20489;-71
2020/12/06 07:55:45;;;;;;;21.50;17.35;;;;;;;1.76;100.00;99332.91;10462051;28;20045;-71
2020/12/06 08:00:46;;;;;;;22.25;16.35;;;;;;;1.56;100.00;99325.72;10460701;28;20060;-71
2020/12/06 08:05:47;;;;;;;18.88;14.90;;;;;;;1.53;100.00;99321.44;10458243;28;20045;-70
2020/12/06 08:10:54;;;;;;;27.38;20.88;;;;;;;1.76;100.00;99346.72;10461373;28;20494;-71
2020/12/06 08:16:06;;;;;;;48.97;37.22;;;;;;;1.85;100.00;99354.25;10460109;28;20048;-71
2020/12/06 08:21:07;;;;;;;30.60;25.73;;;;;;;1.88;100.00;99336.00;10425152;28;20057;-71
2020/12/06 08:26:09;;;;;;;20.65;16.27;;;;;;;1.98;100.00;99344.38;10419381;28;20034;-72
2020/12/06 08:31:20;;;;;;;20.08;16.35;;;;;;;1.94;100.00;99340.16;10448124;28;20047;-72
2020/12/06 08:36:23;;;;;;;26.98;22.33;;;;;;;2.10;100.00;99324.97;10449826;28;20041;-72
2020/12/06 08:41:25;;;;;;;43.75;33.50;;;;;;;2.20;100.00;99308.19;10459540;28;20056;-72
2020/12/06 08:46:26;;;;;;;53.10;43.97;;;;;;;2.32;100.00;99315.63;10459500;28;20045;-72
2020/12/06 08:51:37;;;;;;;29.38;24.00;;;;;;;2.44;100.00;99311.75;10458757;28;20060;-72
2020/12/06 08:56:39;;;;;;;24.33;21.70;;;;;;;2.55;100.00;99335.69;10459694;28;20049;-72
2020/12/06 09:01:52;;;;;;;21.98;19.52;;;;;;;2.67;100.00;99341.34;10449012;28;20503;-72
2020/12/06 09:06:54;;;;;;;19.33;16.13;;;;;;;2.78;100.00;99350.53;10473137;28;20066;-72
2020/12/06 09:11:56;;;;;;;19.83;16.25;;;;;;;2.99;100.00;99349.81;10438595;28;20051;-72
2020/12/06 09:16:58;;;;;;;18.27;15.05;;;;;;;3.27;100.00;99350.56;10451660;28;20128;-72
2020/12/06 09:21:59;;;;;;;26.58;22.17;;;;;;;3.45;100.00;99333.44;10459283;28;20550;-73
2020/12/06 09:27:00;;;;;;;21.40;17.92;;;;;;;3.68;100.00;99332.66;10438639;28;20049;-74
2020/12/06 09:32:01;;;;;;;25.33;19.42;;;;;;;4.01;100.00;99327.94;10422708;28;20045;-74
2020/12/06 09:37:02;;;;;;;20.58;17.13;;;;;;;4.83;100.00;99335.06;10454649;28;20059;-74
2020/12/06 09:42:03;;;;;;;23.27;20.35;;;;;;;5.95;100.00;99337.16;10456462;28;20405;-74
2020/12/06 09:47:04;;;;;;;21.73;19.42;;;;;;;6.03;100.00;99303.66;10429255;28;20134;-74
2020/12/06 09:52:05;;;;;;;23.10;20.67;;;;;;;4.61;100.00;99269.88;10443062;28;20052;-74
2020/12/06 09:57:06;;;;;;;17.20;14.05;;;;;;;4.54;100.00;99282.31;10441373;28;20052;-74
2020/12/06 10:02:07;;;;;;;16.83;14.60;;;;;;;4.39;100.00;99284.72;10436321;28;20059;-74
2020/12/06 10:07:09;;;;;;;19.27;14.57;;;;;;;4.35;100.00;99290.97;10428394;28;20052;-74
2020/12/06 10:12:10;;;;;;;16.30;14.23;;;;;;;4.49;100.00;99299.09;10453133;28;20491;-74
2020/12/06 10:17:12;;;;;;;16.75;13.80;;;;;;;4.57;100.00;99282.22;10457557;28;20382;-74
2020/12/06 10:22:13;;;;;;;21.52;18.00;;;;;;;4.51;100.00;99290.28;10456809;28;20041;-74
2020/12/06 10:27:14;;;;;;;25.20;19.35;;;;;;;4.64;100.00;99281.94;10431308;28;20048;-74
2020/12/06 10:32:15;;;;;;;17.30;15.25;;;;;;;4.37;100.00;99274.34;10437523;28;20045;-74
2020/12/06 10:37:16;;;;;;;21.23;17.02;;;;;;;4.41;100.00;99278.53;10449541;28;20045;-74
2020/12/06 10:42:21;;;;;;;19.23;15.68;;;;;;;4.47;100.00;99285.25;10451736;28;20037;-74
2020/12/06 10:47:22;;;;;;;19.17;16.17;;;;;;;4.30;100.00;99278.09;10446569;28;20063;-74
2020/12/06 10:52:23;;;;;;;16.95;13.73;;;;;;;4.47;100.00;99267.84;10455952;28;20041;-74
2020/12/06 10:57:24;;;;;;;18.38;15.52;;;;;;;4.39;100.00;99287.31;10453171;28;20053;-74
2020/12/06 11:02:26;;;;;;;20.08;17.70;;;;;;;4.50;100.00;99290.34;10437717;28;20557;-74
2020/12/06 11:07:27;;;;;;;23.60;18.95;;;;;;;4.57;100.00;99281.34;10470706;28;20041;-74
2020/12/06 11:12:28;;;;;;;29.17;22.30;;;;;;;4.39;100.00;99263.84;10467282;28;20041;-74
2020/12/06 11:17:30;;;;;;;30.45;23.00;;;;;;;4.42;100.00;99274.16;10461900;28;20516;-74
2020/12/06 11:22:32;;;;;;;24.27;20.45;;;;;;;4.36;100.00;99272.63;10462236;28;20041;-74
2020/12/06 11:27:33;;;;;;;26.02;20.65;;;;;;;4.46;100.00;99296.59;10454664;28;20512;-74
2020/12/06 11:32:34;;;;;;;23.40;18.85;;;;;;;4.40;100.00;99275.97;10438164;28;20041;-74
2020/12/06 11:37:36;;;;;;;23.50;18.70;;;;;;;4.31;100.00;99263.31;10431902;28;20041;-74
2020/12/06 11:42:37;;;;;;;23.27;18.73;;;;;;;4.23;100.00;99252.34;10461999;28;20413;-74
2020/12/06 11:47:38;;;;;;;25.02;19.70;;;;;;;4.07;100.00;99254.72;10462326;28;20480;-74
2020/12/06 11:52:39;;;;;;;28.25;21.88;;;;;;;4.13;100.00;99263.13;10461715;28;20037;-74
2020/12/06 11:57:41;;;;;;;26.48;19.88;;;;;;;4.03;100.00;99255.72;10473164;28;20041;-74
2020/12/06 12:02:42;;;;;;;37.33;26.58;;;;;;;4.07;100.00;99242.53;10475702;28;20048;-74
2020/12/06 12:07:45;;;;;;;41.92;32.75;;;;;;;4.07;100.00;99254.72;10462079;28;20037;-74
2020/12/06 12:12:47;;;;;;;30.98;23.80;;;;;;;3.93;100.00;99254.41;10432030;28;20048;-74
2020/12/06 12:17:51;;;;;;;28.58;21.70;;;;;;;3.97;100.00;99266.41;10460808;28;20449;-73
2020/12/06 12:22:52;;;;;;;22.52;19.23;;;;;;;3.92;100.00;99278.78;10460247;28;20048;-73
2020/12/06 12:27:53;;;;;;;29.77;22.88;;;;;;;3.79;100.00;99268.81;10426881;28;20037;-73
2020/12/06 12:32:55;;;;;;;26.17;20.92;;;;;;;3.73;100.00;99278.63;10459822;28;20055;-74
2020/12/06 12:37:56;;;;;;;30.35;23.90;;;;;;;3.76;100.00;99274.16;10443197;28;20431;-74
2020/12/06 12:42:58;;;;;;;29.27;22.55;;;;;;;3.72;100.00;99267.34;10459596;28;20045;-73
2020/12/06 12:47:59;;;;;;;32.22;23.30;;;;;;;3.79;100.00;99274.03;10459360;28;20120;-73
2020/12/06 12:53:00;;;;;;;33.72;24.63;;;;;;;3.84;100.00;99260.84;10459298;28;20037;-74
2020/12/06 12:58:02;;;;;;;29.05;22.17;;;;;;;3.74;100.00;99249.91;10457267;28;20053;-74
2020/12/06 13:03:04;;;;;;;31.30;23.55;;;;;;;3.82;100.00;99254.81;10458276;28;20041;-74
2020/12/06 13:08:05;;;;;;;29.83;23.20;;;;;;;3.77;100.00;99256.75;10458537;28;20052;-74
2020/12/06 13:13:06;;;;;;;26.77;21.05;;;;;;;3.80;100.00;99249.66;10438104;28;20068;-74
2020/12/06 13:18:07;;;;;;;29.65;21.65;;;;;;;3.84;100.00;99263.44;10432607;28;20397;-74
2020/12/06 13:23:08;;;;;;;27.52;21.33;;;;;;;3.81;100.00;99274.81;10445685;28;20053;-73
2020/12/06 13:28:09;;;;;;;31.73;23.25;;;;;;;3.89;100.00;99277.13;10425558;28;20056;-73
2020/12/06 13:33:10;;;;;;;27.90;21.40;;;;;;;3.92;100.00;99282.22;10432607;28;20166;-74
2020/12/06 13:38:11;;;;;;;28.63;21.80;;;;;;;3.92;100.00;99258.78;10469242;28;20048;-73
2020/12/06 13:43:13;;;;;;;29.33;22.10;;;;;;;3.98;100.00;99232.47;10468840;28;20381;-73
2020/12/06 13:48:14;;;;;;;47.67;33.55;;;;;;;4.00;100.00;99228.06;10452815;28;20048;-73
2020/12/06 13:53:15;;;;;;;35.85;24.85;;;;;;;3.96;100.00;99217.81;10439083;28;20090;-73
2020/12/06 13:58:16;;;;;;;28.20;21.25;;;;;;;4.03;100.00;99243.56;10437162;28;20503;-74
2020/12/06 14:03:17;;;;;;;28.48;20.98;;;;;;;3.99;100.00;99233.34;10457236;28;20045;-73
2020/12/06 14:08:21;;;;;;;31.98;23.70;;;;;;;4.00;100.00;99230.66;10458451;28;20038;-74
2020/12/06 14:13:22;;;;;;;33.78;24.08;;;;;;;4.04;100.00;99237.44;10436192;28;20045;-72
2020/12/06 14:18:23;;;;;;;35.28;26.65;;;;;;;3.96;100.00;99231.69;10430786;28;20044;-73
2020/12/06 14:23:24;;;;;;;34.08;25.10;;;;;;;3.86;100.00;99227.75;10432002;28;20041;-73
2020/12/06 14:28:25;;;;;;;32.58;22.63;;;;;;;3.96;100.00;99220.41;10435738;28;20060;-73
2020/12/06 14:33:26;;;;;;;36.40;25.95;;;;;;;3.82;100.00;99223.56;10414191;28;20045;-75
2020/12/06 14:38:28;;;;;;;33.25;24.02;;;;;;;3.78;100.00;99241.06;10431304;28;20060;-72
2020/12/06 14:43:32;;;;;;;36.17;23.35;;;;;;;3.80;100.00;99256.63;10454365;28;20120;-72
2020/12/06 14:48:33;;;;;;;35.13;23.27;;;;;;;3.72;100.00;99249.13;10453228;28;20477;-72
2020/12/06 14:53:34;;;;;;;33.03;24.02;;;;;;;3.64;100.00;99245.09;10454962;28;20048;-72
2020/12/06 14:58:36;;;;;;;38.90;27.98;;;;;;;3.60;100.00;99277.41;10436575;28;20049;-72
2020/12/06 15:03:37;;;;;;;36.15;24.38;;;;;;;3.55;100.00;99250.66;10453287;28;20045;-72
2020/12/06 15:08:39;;;;;;;41.38;28.90;;;;;;;3.64;100.00;99268.53;10453653;28;20102;-72
2020/12/06 15:13:40;;;;;;;42.03;30.88;;;;;;;3.55;100.00;99258.47;10429750;28;20037;-71
2020/12/06 15:18:47;;;;;;;43.63;30.73;;;;;;;3.51;100.00;99252.53;10436980;28;20045;-72
2020/12/06 15:23:49;;;;;;;44.47;29.83;;;;;;;3.35;100.00;99249.63;10454078;28;20041;-72
2020/12/06 15:28:50;;;;;;;48.22;31.65;;;;;;;3.38;100.00;99254.75;10443085;28;20064;-72
2020/12/06 15:33:51;;;;;;;46.10;32.35;;;;;;;3.36;100.00;99247.88;10454321;28;20120;-72
2020/12/06 15:38:52;;;;;;;38.15;27.92;;;;;;;3.36;100.00;99232.25;10432299;28;20499;-72
2020/12/06 15:43:54;;;;;;;40.22;28.33;;;;;;;3.21;100.00;99209.41;10464722;28;20048;-72
2020/12/06 15:48:55;;;;;;;48.80;31.77;;;;;;;3.22;100.00;99222.38;10495453;28;20044;-72
2020/12/06 15:53:56;;;;;;;42.15;30.13;;;;;;;3.18;100.00;99232.97;10454385;28;20041;-72
2020/12/06 15:58:57;;;;;;;40.88;28.88;;;;;;;3.13;100.00;99227.06;10439991;28;20064;-69
2020/12/06 16:03:58;;;;;;;37.03;27.08;;;;;;;3.15;100.00;99233.06;10460723;28;20056;-70
2020/12/06 16:09:04;;;;;;;36.47;26.63;;;;;;;3.17;100.00;99254.69;10454357;28;20116;-72
2020/12/06 16:14:05;;;;;;;35.95;28.33;;;;;;;3.12;100.00;99277.41;10434743;28;20048;-70
2020/12/06 16:19:07;;;;;;;40.42;29.65;;;;;;;3.17;100.00;99289.34;10452000;28;20056;-70
2020/12/06 16:24:08;;;;;;;37.10;26.20;;;;;;;3.20;100.00;99294.44;10471676;28;20063;-71
2020/12/06 16:29:09;;;;;;;45.53;32.63;;;;;;;3.24;100.00;99316.00;10451384;28;20044;-70
2020/12/06 16:34:10;;;;;;;38.35;29.38;;;;;;;3.20;100.00;99319.59;10477162;28;20052;-70
2020/12/06 16:39:11;;;;;;;32.83;25.70;;;;;;;3.25;100.00;99344.59;10477666;28;20072;-71
2020/12/06 16:44:12;;;;;;;35.78;26.55;;;;;;;3.32;100.00;99338.25;10470312;28;20052;-71
2020/12/06 16:49:13;;;;;;;32.08;24.45;;;;;;;3.31;100.00;99344.38;10464769;28;20376;-70
2020/12/06 16:54:15;;;;;;;35.80;26.35;;;;;;;3.33;100.00;99346.91;10457477;28;20045;-69
2020/12/06 16:59:16;;;;;;;34.83;26.42;;;;;;;3.28;100.00;99348.81;10472210;28;20063;-72
2020/12/06 17:04:17;;;;;;;29.95;23.02;;;;;;;3.22;100.00;99330.81;10482054;28;20048;-72
2020/12/06 17:09:19;;;;;;;26.63;22.00;;;;;;;3.26;100.00;99340.22;10477640;28;20485;-72
2020/12/06 17:14:21;;;;;;;31.73;24.50;;;;;;;3.34;100.00;99333.84;10459826;28;20033;-72
2020/12/06 17:19:22;;;;;;;29.92;22.45;;;;;;;3.33;100.00;99333.91;10460718;28;20040;-72
2020/12/06 17:24:24;;;;;;;27.05;21.50;;;;;;;3.29;100.00;99333.16;10476215;28;20037;-72
2020/12/06 17:29:25;;;;;;;33.30;24.98;;;;;;;3.34;100.00;99341.66;10466952;28;20480;-72
2020/12/06 17:34:27;;;;;;;26.38;21.50;;;;;;;3.33;100.00;99339.97;10473800;28;20056;-72
2020/12/06 17:39:31;;;;;;;31.50;23.13;;;;;;;3.40;100.00;99338.84;10462340;28;20403;-72
2020/12/06 17:44:34;;;;;;;25.27;20.08;;;;;;;3.30;100.00;99327.03;10483978;28;20044;-72
2020/12/06 17:49:39;;;;;;;27.45;22.17;;;;;;;3.38;100.00;99318.97;10469733;28;20063;-72
2020/12/06 17:54:40;;;;;;;28.30;22.13;;;;;;;3.31;100.00;99304.47;10454533;28;20139;-72
2020/12/06 17:59:42;;;;;;;34.63;26.33;;;;;;;3.32;100.00;99304.44;10428959;28;20087;-72
2020/12/06 18:04:43;;;;;;;33.97;25.95;;;;;;;3.22;100.00;99302.19;10413694;28;20057;-72
2020/12/06 18:09:44;;;;;;;36.40;27.55;;;;;;;3.29;100.00;99303.66;10415395;28;20045;-72
2020/12/06 18:14:46;;;;;;;33.90;25.00;;;;;;;3.34;100.00;99289.59;10426325;28;20404;-72
2020/12/06 18:19:47;;;;;;;38.72;27.17;;;;;;;3.26;100.00;99278.63;10437501;28;20040;-72
2020/12/06 18:24:48;;;;;;;52.17;36.75;;;;;;;3.15;100.00;99285.97;10433665;28;20504;-72
2020/12/06 18:29:49;;;;;;;38.25;28.35;;;;;;;3.21;100.00;99271.88;10437628;28;20361;-72
2020/12/06 18:34:51;;;;;;;37.97;29.25;;;;;;;3.21;100.00;99287.47;10454798;28;20043;-72
2020/12/06 18:39:52;;;;;;;38.33;30.40;;;;;;;3.35;100.00;99298.25;10455855;28;20053;-72
2020/12/06 18:44:53;;;;;;;31.10;24.45;;;;;;;3.31;100.00;99291.47;10455885;28;20037;-72
2020/12/06 18:49:54;;;;;;;33.35;26.23;;;;;;;3.31;100.00;99273.25;10461934;28;20056;-72
2020/12/06 18:54:55;;;;;;;42.60;32.05;;;;;;;3.24;100.00;99275.22;10453494;28;20056;-72
2020/12/06 18:59:56;;;;;;;37.72;27.75;;;;;;;3.20;100.00;99278.81;10467748;28;20052;-72
2020/12/06 19:04:58;;;;;;;47.00;35.17;;;;;;;3.20;100.00;99263.22;10475060;28;20045;-72
2020/12/06 19:10:00;;;;;;;77.72;52.38;;;;;;;3.23;100.00;99259.66;10471892;28;20052;-72
2020/12/06 19:15:01;;;;;;;43.78;33.85;;;;;;;3.19;100.00;99255.44;10491200;28;20076;-72
2020/12/06 19:20:03;;;;;;;35.25;30.55;;;;;;;3.20;100.00;99260.59;10457680;28;20055;-72
2020/12/06 19:25:04;;;;;;;35.22;27.52;;;;;;;3.24;100.00;99275.22;10453303;28;20047;-72
2020/12/06 19:30:06;;;;;;;38.55;28.75;;;;;;;3.31;100.00;99270.63;10455540;28;20399;-72
2020/12/06 19:35:10;;;;;;;34.88;25.58;;;;;;;3.40;100.00;99272.91;10463202;28;20048;-72
2020/12/06 19:40:11;;;;;;;45.13;31.40;;;;;;;3.36;100.00;99261.75;10476496;28;20051;-72
2020/12/06 19:45:13;;;;;;;42.50;29.30;;;;;;;3.32;100.00;99239.34;10478784;28;20032;-72
2020/12/06 19:50:15;;;;;;;40.08;29.48;;;;;;;3.28;100.00;99211.72;10487680;28;20047;-72
2020/12/06 19:55:17;;;;;;;47.65;31.25;;;;;;;3.20;100.00;99189.50;10475592;28;20047;-72
2020/12/06 20:00:20;;;;;;;44.25;30.23;;;;;;;3.15;100.00;99179.28;10461869;28;20072;-72
2020/12/06 20:05:21;;;;;;;47.05;30.63;;;;;;;3.22;100.00;99185.09;10486582;28;20037;-72
2020/12/06 20:10:22;;;;;;;44.45;30.73;;;;;;;3.20;100.00;99189.50;10443163;28;20148;-72
2020/12/06 20:15:23;;;;;;;50.47;31.75;;;;;;;3.20;100.00;99190.34;10450313;28;20065;-72
2020/12/06 20:20:24;;;;;;;45.28;29.13;;;;;;;3.22;100.00;99200.72;10448354;28;20468;-72
2020/12/06 20:25:42;;;;;;;38.58;27.10;;;;;;;3.22;100.00;99198.94;10455964;28;20048;-72
2020/12/06 20:30:43;;;;;;;50.47;31.70;;;;;;;3.22;100.00;99218.91;10477810;28;20051;-72
2020/12/06 20:35:45;;;;;;;43.80;27.48;;;;;;;3.22;100.00;99213.72;10472072;28;20116;-72
2020/12/06 20:40:47;;;;;;;42.85;28.00;;;;;;;3.23;100.00;99242.28;10453859;28;20040;-73
2020/12/06 20:45:48;;;;;;;51.28;31.25;;;;;;;3.29;100.00;99275.91;10460037;28;20079;-72
2020/12/06 20:50:49;;;;;;;51.38;32.05;;;;;;;3.35;100.00;99267.00;10480396;28;20124;-72
2020/12/06 20:55:50;;;;;;;43.05;26.88;;;;;;;3.34;100.00;99266.19;10476463;28;20040;-72
2020/12/06 21:00:51;;;;;;;53.92;32.60;;;;;;;3.38;100.00;99254.75;10465834;28;20053;-72
2020/12/06 21:05:52;;;;;;;38.28;24.92;;;;;;;3.32;100.00;99239.34;10445015;28;20429;-71
2020/12/06 21:10:55;;;;;;;57.50;32.55;;;;;;;3.31;100.00;99226.41;10471982;28;20029;-71
2020/12/06 21:15:56;;;;;;;51.63;30.27;;;;;;;3.35;100.00;99225.34;10480345;28;20048;-71
2020/12/06 21:20:57;;;;;;;44.75;27.75;;;;;;;3.33;100.00;99208.97;10440196;28;20477;-71
2020/12/06 21:25:58;;;;;;;38.50;24.27;;;;;;;3.39;100.00;99206.13;10457955;28;20045;-71
2020/12/06 21:30:59;;;;;;;57.78;37.35;;;;;;;3.41;100.00;99191.31;10476856;28;20542;-71
2020/12/06 21:36:02;;;;;;;52.70;37.33;;;;;;;3.29;100.00;99166.59;10473020;28;20050;-71
2020/12/06 21:41:04;;;;;;;52.92;36.00;;;;;;;3.22;100.00;99138.25;10359038;28;20050;-71
2020/12/06 21:46:05;;;;;;;62.22;39.60;;;;;;;3.20;100.00;99137.44;10373502;28;20478;-71
2020/12/06 21:51:06;;;;;;;58.72;41.10;;;;;;;3.28;100.00;99156.22;10394903;28;20069;-71
2020/12/06 21:56:14;;;;;;;;;;;;;;;3.35;100.00;99171.56;10402705;28;20045;-71
2020/12/06 22:01:21;;;;;;;65.47;42.53;;;;;;;3.28;100.00;99164.03;10380429;28;19928;-71
2020/12/06 22:06:25;;;;;;;67.88;45.20;;;;;;;3.35;100.00;99175.91;10395553;28;20072;-71
2020/12/06 22:11:26;;;;;;;63.25;43.90;;;;;;;3.31;100.00;99169.13;10390252;28;20050;-71
2020/12/06 22:16:30;;;;;;;68.63;47.97;;;;;;;3.28;100.00;99188.31;10377966;28;20053;-71
2020/12/06 22:21:32;;;;;;;60.85;41.97;;;;;;;3.25;100.00;99185.00;10386232;28;20049;-71
2020/12/06 22:26:34;;;;;;;53.65;37.35;;;;;;;3.20;100.00;99190.34;10364761;28;20124;-71
2020/12/06 22:31:35;;;;;;;64.82;41.90;;;;;;;3.21;100.00;99186.00;10378750;28;20042;-71
2020/12/06 22:36:37;;;;;;;54.60;37.55;;;;;;;3.19;100.00;99178.25;10375535;28;20042;-71
2020/12/06 22:41:38;;;;;;;62.22;40.60;;;;;;;3.19;100.00;99161.78;10410146;28;20041;-71
2020/12/06 22:46:39;;;;;;;58.60;39.67;;;;;;;3.25;100.00;99146.81;10403059;28;20123;-71
2020/12/06 22:51:41;;;;;;;57.33;38.53;;;;;;;3.20;100.00;99151.31;10374837;28;20049;-71